createdAt,value
2023-05-20T00:00:53.325Z,76.17
2023-05-20T00:03:30.217Z,75.60
2023-05-20T00:05:59.585Z,76.17
2023-05-20T00:08:31.252Z,76.27
2023-05-20T00:11:02.083Z,75.66
2023-05-20T00:13:31.473Z,76.17
2023-05-20T00:16:02.548Z,75.42
2023-05-20T00:18:34.191Z,75.98
2023-05-20T00:21:03.689Z,75.20
2023-05-20T00:23:32.987Z,75.68
2023-05-20T00:26:04.165Z,76.16
2023-05-20T00:28:37.564Z,76.28
2023-05-20T00:31:06.748Z,75.96
2023-05-20T00:33:36.001Z,76.40
2023-05-20T00:36:07.357Z,75.93
2023-05-20T00:38:36.893Z,75.81
2023-05-20T00:41:09.128Z,75.30
2023-05-20T00:43:40.927Z,75.61
2023-05-20T00:46:10.601Z,75.67
2023-05-20T00:48:43.538Z,76.37
2023-05-20T00:51:17.572Z,75.18
2023-05-20T00:53:47.571Z,75.52
2023-05-20T00:56:21.623Z,76.05
2023-05-20T00:58:53.168Z,76.55
2023-05-20T01:01:26.635Z,76.04
2023-05-20T01:03:55.854Z,75.47
2023-05-20T01:06:25.616Z,76.03
2023-05-20T01:08:59.896Z,75.59
2023-05-20T01:11:44.772Z,75.44
2023-05-20T01:14:20.773Z,75.08
2023-05-20T01:16:54.423Z,75.45
2023-05-20T01:19:41.815Z,76.10
2023-05-20T01:22:12.839Z,75.74
2023-05-20T01:24:48.192Z,75.06
2023-05-20T01:27:22.888Z,75.74
2023-05-20T01:29:53.906Z,75.18
2023-05-20T01:32:28.607Z,75.17
2023-05-20T01:34:59.592Z,74.85
2023-05-20T01:37:30.923Z,75.21
2023-05-20T01:40:03.566Z,76.01
2023-05-20T01:42:33.987Z,75.39
2023-05-20T01:45:04.670Z,75.98
2023-05-20T01:47:33.719Z,75.60
2023-05-20T01:50:03.259Z,75.16
2023-05-20T01:52:32.187Z,75.92
2023-05-20T01:55:01.657Z,75.20
2023-05-20T01:57:32.500Z,75.35
2023-05-20T02:00:03.826Z,75.82
2023-05-20T02:02:48.836Z,75.19
2023-05-20T02:05:18.105Z,75.55
2023-05-20T02:07:49.266Z,75.77
2023-05-20T02:10:18.521Z,75.32
2023-05-20T02:12:50.663Z,75.92
2023-05-20T02:15:21.791Z,74.88
2023-05-20T02:17:52.772Z,75.76
2023-05-20T02:20:21.897Z,75.09
2023-05-20T02:22:55.026Z,76.09
2023-05-20T02:25:24.550Z,75.33
2023-05-20T02:27:53.576Z,75.84
2023-05-20T02:30:24.993Z,75.19
2023-05-20T02:32:54.147Z,75.76
2023-05-20T02:35:23.445Z,75.73
2023-05-20T02:37:54.492Z,75.28
2023-05-20T02:40:24.490Z,75.53
2023-05-20T02:42:53.453Z,75.73
2023-05-20T02:45:22.859Z,75.87
2023-05-20T02:47:53.802Z,75.72
2023-05-20T02:50:25.451Z,75.33
2023-05-20T02:52:57.066Z,74.82
2023-05-20T02:55:29.258Z,75.91
2023-05-20T02:57:58.270Z,76.11
2023-05-20T03:00:34.991Z,75.02
2023-05-20T03:03:07.518Z,75.80
2023-05-20T03:05:37.570Z,75.10
2023-05-20T03:08:14.824Z,74.81
2023-05-20T03:10:43.800Z,75.33
2023-05-20T03:13:16.401Z,75.15
2023-05-20T03:15:45.973Z,75.34
2023-05-20T03:18:20.127Z,75.00
2023-05-20T03:20:49.119Z,75.45
2023-05-20T03:23:20.859Z,75.51
2023-05-20T03:25:53.526Z,75.24
2023-05-20T03:28:23.465Z,76.09
2023-05-20T03:30:52.845Z,75.65
2023-05-20T03:33:25.622Z,75.79
2023-05-20T03:35:57.764Z,75.76
2023-05-20T03:38:31.823Z,74.95
2023-05-20T03:41:02.280Z,75.46
2023-05-20T03:43:34.143Z,75.52
2023-05-20T03:49:11.264Z,75.82
2023-05-20T03:51:41.015Z,75.90
2023-05-20T03:54:14.369Z,75.39
2023-05-20T03:56:49.009Z,76.10
2023-05-20T03:59:18.511Z,75.86
2023-05-20T04:01:53.462Z,75.79
2023-05-20T04:04:24.373Z,75.98
2023-05-20T04:06:53.878Z,75.38
2023-05-20T04:09:23.432Z,76.30
2023-05-20T04:11:55.234Z,75.76
2023-05-20T04:14:24.620Z,75.25
2023-05-20T04:16:55.072Z,75.98
2023-05-20T04:19:34.291Z,75.23
2023-05-20T04:22:03.736Z,75.89
2023-05-20T04:24:33.399Z,74.92
2023-05-20T04:27:06.005Z,75.35
2023-05-20T04:29:39.154Z,75.41
2023-05-20T04:32:12.093Z,75.09
2023-05-20T04:34:42.301Z,75.03
2023-05-20T04:37:17.683Z,74.67
2023-05-20T04:39:52.913Z,75.01
2023-05-20T04:42:22.164Z,74.82
2023-05-20T04:44:56.415Z,75.00
2023-05-20T04:47:25.597Z,74.57
2023-05-20T04:49:58.308Z,74.71
2023-05-20T04:52:29.570Z,74.40
2023-05-20T04:55:01.380Z,75.01
2023-05-20T04:57:34.041Z,74.19
2023-05-20T05:00:07.189Z,74.16
2023-05-20T05:02:57.430Z,74.10
2023-05-20T05:05:27.403Z,74.15
2023-05-20T05:08:14.007Z,74.50
2023-05-20T05:10:54.088Z,74.54
2023-05-20T05:13:31.183Z,73.83
2023-05-20T05:16:03.427Z,73.66
2023-05-20T05:18:35.645Z,73.85
2023-05-20T05:21:07.364Z,73.45
2023-05-20T05:23:41.998Z,73.40
2023-05-20T05:26:11.787Z,73.67
2023-05-20T05:28:49.660Z,73.48
2023-05-20T05:31:21.750Z,73.08
2023-05-20T05:33:53.367Z,72.94
2023-05-20T05:36:25.262Z,72.97
2023-05-20T05:38:55.395Z,72.98
2023-05-20T05:41:24.822Z,72.29
2023-05-20T05:43:58.539Z,72.61
2023-05-20T05:46:28.959Z,72.16
2023-05-20T05:49:01.764Z,72.46
2023-05-20T05:51:33.649Z,72.35
2023-05-20T05:54:10.159Z,72.34
2023-05-20T05:56:39.060Z,72.22
2023-05-20T05:59:08.401Z,72.24
2023-05-20T06:01:58.336Z,71.42
2023-05-20T06:04:33.551Z,71.41
2023-05-20T06:07:03.771Z,71.05
2023-05-20T06:09:32.744Z,70.63
2023-05-20T06:12:02.536Z,70.03
2023-05-20T06:14:32.567Z,70.19
2023-05-20T06:17:06.411Z,70.36
2023-05-20T06:19:38.192Z,70.20
2023-05-20T06:22:10.020Z,69.82
2023-05-20T06:24:40.315Z,69.40
2023-05-20T06:27:12.394Z,69.31
2023-05-20T06:29:46.010Z,68.94
2023-05-20T06:32:18.806Z,68.80
2023-05-20T06:34:59.191Z,68.30
2023-05-20T06:37:28.802Z,68.52
2023-05-20T06:39:58.052Z,68.43
2023-05-20T06:42:27.702Z,67.49
2023-05-20T06:45:10.332Z,67.84
2023-05-20T06:47:56.698Z,67.16
2023-05-20T06:50:27.804Z,67.20
2023-05-20T06:53:05.314Z,67.10
2023-05-20T06:55:41.004Z,67.10
2023-05-20T06:58:18.749Z,66.81
2023-05-20T07:00:48.608Z,66.88
2023-05-20T07:03:19.604Z,66.25
2023-05-20T07:05:54.233Z,66.40
2023-05-20T07:08:23.839Z,66.01
2023-05-20T07:10:55.788Z,65.92
2023-05-20T07:13:34.737Z,65.91
2023-05-20T07:16:11.743Z,65.07
2023-05-20T07:18:51.276Z,65.11
2023-05-20T07:21:21.057Z,65.28
2023-05-20T07:24:09.069Z,65.00
2023-05-20T07:26:53.506Z,64.84
2023-05-20T07:29:25.160Z,64.49
2023-05-20T07:31:55.946Z,64.73
2023-05-20T07:34:27.627Z,64.21
2023-05-20T07:36:58.376Z,64.49
2023-05-20T07:39:27.871Z,64.29
2023-05-20T07:41:56.756Z,64.57
2023-05-20T07:44:27.313Z,63.75
2023-05-20T07:47:06.648Z,63.18
2023-05-20T07:49:36.513Z,63.19
2023-05-20T07:52:09.189Z,63.41
2023-05-20T07:54:43.426Z,62.90
2023-05-20T07:57:16.746Z,63.33
2023-05-20T07:59:48.292Z,62.90
2023-05-20T08:02:25.212Z,63.01
2023-05-20T08:04:54.857Z,62.49
2023-05-20T08:07:26.296Z,62.30
2023-05-20T08:09:56.746Z,62.48
2023-05-20T08:12:27.913Z,62.11
2023-05-20T08:14:57.482Z,62.33
2023-05-20T08:17:26.818Z,62.13
2023-05-20T08:19:56.344Z,61.76
2023-05-20T08:22:25.482Z,62.21
2023-05-20T08:24:54.717Z,61.20
2023-05-20T08:27:23.806Z,61.34
2023-05-20T08:29:53.950Z,61.39
2023-05-20T08:32:24.258Z,60.51
2023-05-20T08:34:56.630Z,60.94
2023-05-20T08:37:28.913Z,60.64
2023-05-20T08:39:59.238Z,60.30
2023-05-20T08:42:31.000Z,60.38
2023-05-20T08:45:02.885Z,59.80
2023-05-20T08:47:36.350Z,59.03
2023-05-20T08:50:07.059Z,59.10
2023-05-20T08:52:42.408Z,59.22
2023-05-20T08:55:26.358Z,58.71
2023-05-20T08:57:58.330Z,58.99
2023-05-20T09:00:30.308Z,58.29
2023-05-20T09:03:03.792Z,57.38
2023-05-20T09:05:34.649Z,57.36
2023-05-20T09:08:14.660Z,57.18
2023-05-20T09:10:43.849Z,57.06
2023-05-20T09:13:12.704Z,57.24
2023-05-20T09:15:44.004Z,56.93
2023-05-20T09:18:14.133Z,56.44
2023-05-20T09:20:46.712Z,56.32
2023-05-20T09:23:21.162Z,56.08
2023-05-20T09:25:52.521Z,55.37
2023-05-20T09:28:24.556Z,55.22
2023-05-20T09:31:00.140Z,55.15
2023-05-20T09:33:29.930Z,54.74
2023-05-20T09:36:09.050Z,54.09
2023-05-20T09:38:41.676Z,54.44
2023-05-20T09:41:12.472Z,54.45
2023-05-20T09:43:44.622Z,54.00
2023-05-20T09:46:17.380Z,53.93
2023-05-20T09:48:46.486Z,53.07
2023-05-20T09:51:17.618Z,53.18
2023-05-20T09:53:46.833Z,52.79
2023-05-20T09:56:22.201Z,52.41
2023-05-20T09:58:58.073Z,51.85
2023-05-20T10:01:27.481Z,52.11
2023-05-20T10:03:57.631Z,51.65
2023-05-20T10:06:46.435Z,51.16
2023-05-20T10:09:51.436Z,51.33
2023-05-20T10:12:29.054Z,50.90
2023-05-20T10:15:10.653Z,50.70
2023-05-20T10:17:46.867Z,50.59
2023-05-20T10:20:18.225Z,50.39
2023-05-20T10:22:57.124Z,50.47
2023-05-20T10:25:28.421Z,49.92
2023-05-20T10:28:09.544Z,49.70
2023-05-20T10:30:49.470Z,49.45
2023-05-20T10:33:19.314Z,49.01
2023-05-20T10:35:51.867Z,49.11
2023-05-20T10:38:24.415Z,48.72
2023-05-20T10:40:53.843Z,48.87
2023-05-20T10:43:28.810Z,48.27
2023-05-20T10:46:00.210Z,47.65
2023-05-20T10:48:34.934Z,47.70
2023-05-20T10:51:05.520Z,48.21
2023-05-20T10:53:45.956Z,47.45
2023-05-20T10:56:21.477Z,47.74
2023-05-20T10:58:55.797Z,47.41
2023-05-20T11:01:27.041Z,47.24
2023-05-20T11:03:57.538Z,47.42
2023-05-20T11:06:28.853Z,46.80
2023-05-20T11:09:06.234Z,46.88
2023-05-20T11:11:38.086Z,46.36
2023-05-20T11:14:07.384Z,46.34
2023-05-20T11:16:36.640Z,46.38
2023-05-20T11:19:08.339Z,46.40
2023-05-20T11:21:44.609Z,46.20
2023-05-20T11:24:22.914Z,45.69
2023-05-20T11:26:52.729Z,45.74
2023-05-20T11:29:21.948Z,45.70
2023-05-20T11:31:55.665Z,45.47
2023-05-20T11:34:26.843Z,45.53
2023-05-20T11:37:00.769Z,45.42
2023-05-20T11:39:31.226Z,44.99
2023-05-20T11:42:01.561Z,45.57
2023-05-20T11:44:33.191Z,45.29
2023-05-20T11:47:03.817Z,44.66
2023-05-20T11:49:40.414Z,44.85
2023-05-20T11:52:12.588Z,45.43
2023-05-20T11:54:43.580Z,44.84
2023-05-20T11:57:15.991Z,44.74
2023-05-20T11:59:51.162Z,44.80
2023-05-20T12:02:20.560Z,45.00
2023-05-20T12:04:49.450Z,44.97
2023-05-20T12:07:18.488Z,44.98
2023-05-20T12:09:47.297Z,45.19
2023-05-20T12:12:20.765Z,44.93
2023-05-20T12:14:50.041Z,45.21
2023-05-20T12:17:21.675Z,44.72
2023-05-20T12:19:50.765Z,44.47
2023-05-20T12:22:20.028Z,44.57
2023-05-20T12:24:50.029Z,44.24
2023-05-20T12:27:19.123Z,43.91
2023-05-20T12:29:48.093Z,44.12
2023-05-20T12:32:17.664Z,44.13
2023-05-20T12:34:46.458Z,43.78
2023-05-20T12:37:16.575Z,43.87
2023-05-20T12:39:46.148Z,44.04
2023-05-20T12:42:19.123Z,43.92
2023-05-20T12:44:49.196Z,44.02
2023-05-20T12:47:18.360Z,43.89
2023-05-20T12:49:50.237Z,43.94
2023-05-20T12:52:22.794Z,43.61
2023-05-20T12:54:51.923Z,43.86
2023-05-20T12:57:21.996Z,43.98
2023-05-20T12:59:51.060Z,43.68
2023-05-20T13:02:21.265Z,43.89
2023-05-20T13:04:50.173Z,43.96
2023-05-20T13:07:19.272Z,43.69
2023-05-20T13:09:48.169Z,43.90
2023-05-20T13:12:17.458Z,43.68
2023-05-20T13:14:46.259Z,43.62
2023-05-20T13:17:19.092Z,43.82
2023-05-20T13:19:51.460Z,43.52
2023-05-20T13:22:22.033Z,43.70
2023-05-20T13:24:50.912Z,43.47
2023-05-20T13:27:20.154Z,43.39
2023-05-20T13:29:49.199Z,43.38
2023-05-20T13:32:21.101Z,43.26
2023-05-20T13:34:50.218Z,43.29
2023-05-20T13:37:19.248Z,43.49
2023-05-20T13:39:48.980Z,43.55
2023-05-20T13:42:20.854Z,43.50
2023-05-20T13:44:51.575Z,43.48
2023-05-20T13:47:26.767Z,43.39
2023-05-20T13:49:59.113Z,43.29
2023-05-20T13:52:29.154Z,43.26
2023-05-20T13:54:57.976Z,43.30
2023-05-20T13:57:27.063Z,43.29
2023-05-20T13:59:55.994Z,43.45
2023-05-20T14:02:24.864Z,43.61
2023-05-20T14:04:54.167Z,43.86
2023-05-20T14:07:23.012Z,44.08
2023-05-20T14:09:51.973Z,44.56
2023-05-20T14:12:23.558Z,44.52
2023-05-20T14:14:53.723Z,44.50
2023-05-20T14:17:22.844Z,44.19
2023-05-20T14:19:51.566Z,44.42
2023-05-20T14:22:23.449Z,43.95
2023-05-20T14:24:52.226Z,44.15
2023-05-20T14:27:21.309Z,44.10
2023-05-20T14:29:50.662Z,44.13
2023-05-20T14:32:21.083Z,44.24
2023-05-20T14:34:51.336Z,44.20
2023-05-20T14:37:23.968Z,44.39
2023-05-20T14:39:52.866Z,44.21
2023-05-20T14:42:21.937Z,44.39
2023-05-20T14:44:54.351Z,44.35
2023-05-20T14:47:23.784Z,44.43
2023-05-20T14:49:53.032Z,44.73
2023-05-20T14:52:22.066Z,44.72
2023-05-20T14:54:52.052Z,44.54
2023-05-20T14:57:25.154Z,44.64
2023-05-20T14:59:54.074Z,44.70
2023-05-20T15:02:26.944Z,44.59
2023-05-20T15:04:56.113Z,44.87
2023-05-20T15:07:25.818Z,44.90
2023-05-20T15:09:54.799Z,44.92
2023-05-20T15:12:23.786Z,45.26
2023-05-20T15:14:52.745Z,45.54
2023-05-20T15:17:23.347Z,45.57
2023-05-20T15:19:52.714Z,46.14
2023-05-20T15:22:22.557Z,45.98
2023-05-20T15:24:52.803Z,45.90
2023-05-20T15:27:23.267Z,46.25
2023-05-20T15:29:55.782Z,45.98
2023-05-20T15:32:25.266Z,46.34
2023-05-20T15:34:54.274Z,46.28
2023-05-20T15:37:23.254Z,45.94
2023-05-20T15:39:59.609Z,46.05
2023-05-20T15:42:33.148Z,46.67
2023-05-20T15:45:02.508Z,46.16
2023-05-20T15:47:31.800Z,46.25
2023-05-20T15:50:10.839Z,46.74
2023-05-20T15:52:40.025Z,46.48
2023-05-20T15:55:10.986Z,46.67
2023-05-20T15:57:40.308Z,46.62
2023-05-20T16:00:11.799Z,46.99
2023-05-20T16:02:43.642Z,47.19
2023-05-20T16:05:15.946Z,46.79
2023-05-20T16:07:46.290Z,46.97
2023-05-20T16:10:18.283Z,47.62
2023-05-20T16:12:47.557Z,47.25
2023-05-20T16:15:22.012Z,47.39
2023-05-20T16:17:51.199Z,47.20
2023-05-20T16:20:20.306Z,47.24
2023-05-20T16:22:49.706Z,47.28
2023-05-20T16:25:18.604Z,47.71
2023-05-20T16:27:47.690Z,47.90
2023-05-20T16:30:20.480Z,47.70
2023-05-20T16:32:49.825Z,47.52
2023-05-20T16:35:19.456Z,47.30
2023-05-20T16:37:48.921Z,47.65
2023-05-20T16:40:17.882Z,47.80
2023-05-20T16:42:47.010Z,47.87
2023-05-20T16:45:20.799Z,47.55
2023-05-20T16:47:50.268Z,47.90
2023-05-20T16:50:19.256Z,47.71
2023-05-20T16:52:48.354Z,48.32
2023-05-20T16:55:18.207Z,47.97
2023-05-20T16:57:47.866Z,48.49
2023-05-20T17:00:20.417Z,48.41
2023-05-20T17:02:50.185Z,48.48
2023-05-20T17:05:19.315Z,48.69
2023-05-20T17:07:49.355Z,48.29
2023-05-20T17:10:18.276Z,48.58
2023-05-20T17:12:47.274Z,48.30
2023-05-20T17:15:19.813Z,48.80
2023-05-20T17:17:50.073Z,48.64
2023-05-20T17:20:19.289Z,49.07
2023-05-20T17:22:48.733Z,48.91
2023-05-20T17:25:18.205Z,48.61
2023-05-20T17:27:47.174Z,49.09
2023-05-20T17:30:21.633Z,48.62
2023-05-20T17:32:53.846Z,48.71
2023-05-20T17:35:25.139Z,48.83
2023-05-20T17:37:54.723Z,49.26
2023-05-20T17:40:23.760Z,48.88
2023-05-20T17:42:52.919Z,48.87
2023-05-20T17:45:30.517Z,48.92
2023-05-20T17:48:11.663Z,48.93
2023-05-20T17:50:41.799Z,49.46
2023-05-20T17:53:15.435Z,49.26
2023-05-20T17:55:46.882Z,49.26
2023-05-20T17:58:17.442Z,49.44
2023-05-20T18:00:47.068Z,49.47
2023-05-20T18:03:18.633Z,49.34
2023-05-20T18:05:48.098Z,49.53
2023-05-20T18:08:23.913Z,49.63
2023-05-20T18:10:55.316Z,49.53
2023-05-20T18:13:25.586Z,49.99
2023-05-20T18:15:56.091Z,49.67
2023-05-20T18:18:26.905Z,49.69
2023-05-20T18:20:57.665Z,50.01
2023-05-20T18:23:27.262Z,49.93
2023-05-20T18:25:56.927Z,50.20
2023-05-20T18:28:26.500Z,50.30
2023-05-20T18:30:57.226Z,50.52
2023-05-20T18:33:26.788Z,50.14
2023-05-20T18:35:56.443Z,50.28
2023-05-20T18:38:26.155Z,50.93
2023-05-20T18:40:55.747Z,50.59
2023-05-20T18:43:25.883Z,50.73
2023-05-20T18:45:55.638Z,51.13
2023-05-20T18:48:27.369Z,50.71
2023-05-20T18:50:58.577Z,51.07
2023-05-20T18:53:27.954Z,51.18
2023-05-20T18:56:02.133Z,51.43
2023-05-20T18:58:33.218Z,51.42
2023-05-20T19:01:02.839Z,51.69
2023-05-20T19:03:32.717Z,51.61
2023-05-20T19:06:01.901Z,51.67
2023-05-20T19:08:32.020Z,52.00
2023-05-20T19:11:01.238Z,52.02
2023-05-20T19:13:30.895Z,52.26
2023-05-20T19:16:00.210Z,52.27
2023-05-20T19:18:29.780Z,52.16
2023-05-20T19:20:59.226Z,52.45
2023-05-20T19:23:28.466Z,52.68
2023-05-20T19:25:57.502Z,52.90
2023-05-20T19:28:26.826Z,52.79
2023-05-20T19:30:55.910Z,52.80
2023-05-20T19:33:25.762Z,52.99
2023-05-20T19:35:57.264Z,53.11
2023-05-20T19:38:26.578Z,53.24
2023-05-20T19:40:55.684Z,53.38
2023-05-20T19:43:25.267Z,53.61
2023-05-20T19:45:54.422Z,53.57
2023-05-20T19:48:23.903Z,53.87
2023-05-20T19:50:53.320Z,53.91
2023-05-20T19:53:23.011Z,53.95
2023-05-20T19:55:53.055Z,54.24
2023-05-20T19:58:22.939Z,54.45
2023-05-20T20:00:52.132Z,54.23
2023-05-20T20:03:20.972Z,54.31
2023-05-20T20:05:50.465Z,54.30
2023-05-20T20:08:19.617Z,54.79
2023-05-20T20:10:48.943Z,54.72
2023-05-20T20:13:18.427Z,54.67
2023-05-20T20:15:47.673Z,54.69
2023-05-20T20:18:23.143Z,54.55
2023-05-20T20:20:54.698Z,54.66
2023-05-20T20:23:27.764Z,54.94
2023-05-20T20:25:57.284Z,55.24
2023-05-20T20:28:26.459Z,55.20
2023-05-20T20:30:55.538Z,54.77
2023-05-20T20:33:27.177Z,55.03
2023-05-20T20:35:57.137Z,55.32
2023-05-20T20:38:26.608Z,55.44
2023-05-20T20:40:55.628Z,55.39
2023-05-20T20:43:28.266Z,55.52
2023-05-20T20:45:59.469Z,55.36
2023-05-20T20:48:28.876Z,55.39
2023-05-20T20:50:58.614Z,55.71
2023-05-20T20:53:27.779Z,55.11
2023-05-20T20:55:56.615Z,55.24
2023-05-20T20:58:26.667Z,55.62
2023-05-20T21:00:55.788Z,55.11
2023-05-20T21:03:26.125Z,55.74
2023-05-20T21:05:54.998Z,55.46
2023-05-20T21:08:27.343Z,55.35
2023-05-20T21:10:58.810Z,55.62
2023-05-20T21:13:28.356Z,55.43
2023-05-20T21:15:58.018Z,55.57
2023-05-20T21:18:27.355Z,55.65
2023-05-20T21:20:56.455Z,56.08
2023-05-20T21:23:25.561Z,55.59
2023-05-20T21:25:54.635Z,55.77
2023-05-20T21:28:23.874Z,55.99
2023-05-20T21:30:52.801Z,56.36
2023-05-20T21:33:25.278Z,56.44
2023-05-20T21:35:54.376Z,56.26
2023-05-20T21:38:25.208Z,56.31
2023-05-20T21:40:54.241Z,56.59
2023-05-20T21:43:27.405Z,56.96
2023-05-20T21:45:58.537Z,56.44
2023-05-20T21:48:29.366Z,56.96
2023-05-20T21:51:02.865Z,57.20
2023-05-20T21:53:32.222Z,56.69
2023-05-20T21:56:01.429Z,56.71
2023-05-20T21:58:31.316Z,57.39
2023-05-20T22:01:03.273Z,57.12
2023-05-20T22:03:33.161Z,57.48
2023-05-20T22:06:04.706Z,57.58
2023-05-20T22:08:33.910Z,57.64
2023-05-20T22:11:07.549Z,58.14
2023-05-20T22:13:40.875Z,58.01
2023-05-20T22:16:10.810Z,58.58
2023-05-20T22:18:40.268Z,58.54
2023-05-20T22:21:08.999Z,58.22
2023-05-20T22:23:38.155Z,58.40
2023-05-20T22:26:09.549Z,59.38
2023-05-20T22:28:38.663Z,59.48
2023-05-20T22:31:08.086Z,58.86
2023-05-20T22:33:40.893Z,59.02
2023-05-20T22:36:09.900Z,59.63
2023-05-20T22:38:38.998Z,59.76
2023-05-20T22:41:08.168Z,60.30
2023-05-20T22:43:37.719Z,59.91
2023-05-20T22:46:06.994Z,60.31
2023-05-20T22:48:36.297Z,60.50
2023-05-20T22:51:06.265Z,60.53
2023-05-20T22:53:35.543Z,59.67
2023-05-20T22:56:07.857Z,60.97
2023-05-20T22:58:39.242Z,60.99
2023-05-20T23:01:08.354Z,60.87
2023-05-20T23:03:37.887Z,60.87
2023-05-20T23:06:06.903Z,61.26
2023-05-20T23:08:37.130Z,60.73
2023-05-20T23:11:06.177Z,61.36
2023-05-20T23:13:35.503Z,61.38
2023-05-20T23:16:06.045Z,61.67
2023-05-20T23:18:35.189Z,61.07
2023-05-20T23:21:04.185Z,61.87
2023-05-20T23:23:33.422Z,61.33
2023-05-20T23:26:02.510Z,61.24
2023-05-20T23:28:31.950Z,61.51
2023-05-20T23:31:00.813Z,62.46
2023-05-20T23:33:31.026Z,62.02
2023-05-20T23:36:00.039Z,62.41
2023-05-20T23:38:31.918Z,61.75
2023-05-20T23:41:01.022Z,61.81
2023-05-20T23:43:30.177Z,62.54
2023-05-20T23:46:02.600Z,62.49
2023-05-20T23:48:35.470Z,62.13
2023-05-20T23:51:04.749Z,62.19
2023-05-20T23:53:35.907Z,62.46
2023-05-20T23:56:07.250Z,61.85
2023-05-20T23:58:36.470Z,62.05
